Flight Track Log - Related Links

Times and Time Zones

All times are in EDT time to prevent confusion due to time zone crossing. See the N28295 flight status page for this flight to view local times or setup timezone preferences in your user account.

Time Position Orientation Groundspeed Altitude Reporting Facility
EDT Latitude Longitude Course Direction KTS MPH feet Rate Location/Type
Sun 09:05:58 PM 40.0228 -79.0053 75° East 113 130 3,000  Level Cleveland Center
Sun 09:06:22 PM 40.0267 -78.9861 75° East 122 140 3,200 565 Climbing Cleveland Center
Sun 09:07:23 PM 40.0219 -78.9456 99° East 122 140 3,800 595 Climbing Cleveland Center
Sun 09:08:23 PM 40.0028 -78.9056 122° Southeast 123 142 4,400 595 Climbing Cleveland Center
Sun 09:09:24 PM 39.9814 -78.8653 125° Southeast 126 145 5,000 295 Climbing Cleveland Center
Sun 09:10:25 PM 39.9639 -78.8197 117° Southeast 140 161 5,000  Level Cleveland Center
Sun 09:11:25 PM 39.9422 -78.7742 122° Southeast 156 180 5,000  Level Cleveland Center
Sun 09:12:26 PM 39.9206 -78.7208 118° Southeast 160 184 5,000  Level Cleveland Center
Sun 09:13:26 PM 39.9008 -78.6644 114° Southeast 161 185 5,000  Level Cleveland Center
Sun 09:14:27 PM 39.8792 -78.6164 120° Southeast 156 180 5,000  Level Cleveland Center
Sun 09:15:28 PM 39.8597 -78.5683 118° Southeast 156 180 5,000  Level Cleveland Center
Sun 09:16:28 PM 39.8381 -78.5231 122° Southeast 152 175 5,000 -29 Level Cleveland Center
Sun 09:18:56 PM 39.7853 -78.3917 118° Southeast 165 190 4,900 -29 Descending Washington Center
Sun 09:19:57 PM 39.7614 -78.3503 127° Southeast 153 176 4,900  Level Washington Center
Sun 09:20:55 PM 39.7311 -78.3058 132° Southeast 153 176 4,900  Level Washington Center
Sun 09:21:56 PM 39.7028 -78.2669 133° Southeast 153 176 4,900  Level Washington Center
Sun 09:22:57 PM 39.6725 -78.2281 135° Southeast 153 176 4,900  Level Washington Center
Sun 09:23:57 PM 39.6442 -78.1894 134° Southeast 153 176 4,900  Level Washington Center
Sun 09:24:57 PM 39.6136 -78.1506 136° Southeast 153 176 4,900 51 Level Washington Center
Sun 09:25:55 PM 39.5831 -78.1144 138° Southeast 153 176 5,000 50 Climbing Washington Center
Sun 09:26:56 PM 39.5547 -78.0786 136° Southeast 153 176 5,000  Level Washington Center
Sun 09:27:57 PM 39.5264 -78.0400 134° Southeast 148 170 5,000  Level Washington Center
Sun 09:28:56 PM 39.4978 -78.0014 134° Southeast 148 170 5,000  Level Washington Center
Sun 09:29:57 PM 39.4675 -77.9625 135° Southeast 148 170 5,000  Level Washington Center
Sun 09:30:57 PM 39.4389 -77.9242 134° Southeast 148 170 5,000  Level Washington Center
Sun 09:31:55 PM 39.4083 -77.8881 138° Southeast 148 170 5,000  Level Washington Center
Sun 09:32:56 PM 39.3822 -77.8417 126° Southeast 147 169 5,000  Level Washington Center
Sun 09:34:35 PM 39.4000 -77.7500 76° East 158 182 5,000  Level Potomac TRACON
Sun 09:35:35 PM 39.4000 -77.7000 90° East 156 180 5,000  Level Potomac TRACON
Sun 09:36:29 PM 39.4000 -77.6500 90° East 148 170 5,000  Level Potomac TRACON
Sun 09:37:35 PM 39.4167 -77.5833 72° East 147 169 5,000  Level Potomac TRACON
Sun 09:38:41 PM 39.4167 -77.5333 90° East 147 169 5,000 -48 Level Potomac TRACON
Sun 09:39:41 PM 39.4333 -77.4833 67° East 156 180 4,900 -316 Descending Potomac TRACON
Sun 09:40:35 PM 39.4000 -77.4333 131° Southeast 165 190 4,400 -500 Descending Potomac TRACON
Sun 09:41:29 PM 39.3833 -77.3833 113° Southeast 163 188 4,000 -238 Descending Potomac TRACON
Sun 09:42:41 PM 39.3667 -77.3333 113° Southeast 153 176 3,900  Descending Potomac TRACON
Sun 09:43:35 PM 39.3333 -77.2833 131° Southeast 150 173 4,000 -105 Climbing Potomac TRACON
Sun 09:44:35 PM 39.3167 -77.2333 113° Southeast 158 182 3,700 -476 Descending Potomac TRACON
Sun 09:45:41 PM 39.2833 -77.1833 131° Southeast 165 190 3,000 -350 Descending Potomac TRACON
Sun 09:46:35 PM 39.2667 -77.1500 123° Southeast 164 189 3,000  Level Potomac TRACON
Sun 09:47:35 PM 39.2500 -77.1000 113° Southeast 158 182 3,000 -579 Level Potomac TRACON
Sun 09:48:29 PM 39.2333 -77.0500 113° Southeast 173 199 1,900 -550 Descending Potomac TRACON
Sun 09:49:35 PM 39.2000 -77.0000 131° Southeast 154 177 1,900  Level Potomac TRACON
Sun 09:50:35 PM 39.1833 -76.9500 113° Southeast 151 174 1,900 -150 Level Potomac TRACON
Sun 09:51:35 PM 39.1500 -76.9000 131° Southeast 157 181 1,600 -263 Descending Potomac TRACON
Sun 09:52:29 PM 39.1333 -76.8667 123° Southeast 151 174 1,400 -100 Descending Potomac TRACON
Sun 09:53:35 PM 39.1000 -76.8167 131° Southeast 149 171 1,400 -143 Level Potomac TRACON
Sun 09:54:35 PM 39.0833 -76.7833 123° Southeast 136 157 1,100 -250 Descending Potomac TRACON
Sun 09:55:35 PM 39.0667 -76.7333 113° Southeast 106 122 900 -200 Descending Potomac TRACON
Sun 09:57:00 PM 39.0854 -76.7594 322° Northwest  Level Estimated
Sun 10:04:00 PM 39.0854 -76.7594 159° South  Level Estimated
Sun 10:05:00 PM 39.0854 -76.7594 159° South  Level Estimated
Sun 10:06:00 PM 39.0854 -76.7594 159° South  Level Estimated

Login

Don't have an account? Register now (free) for customized features, flight alerts, and more!